createdAt,value
2018-02-23T00:00:16.874Z,1.61
2018-02-23T00:02:42.810Z,1.57
2018-02-23T00:05:09.263Z,1.51
2018-02-23T00:07:35.249Z,1.32
2018-02-23T00:10:01.211Z,1.37
2018-02-23T00:12:27.138Z,0.76
2018-02-23T00:14:53.090Z,1.06
2018-02-23T00:17:19.013Z,1.20
2018-02-23T00:19:44.953Z,1.49
2018-02-23T00:22:10.902Z,1.31
2018-02-23T00:24:36.867Z,1.33
2018-02-23T00:27:02.800Z,1.33
2018-02-23T00:29:28.746Z,0.92
2018-02-23T00:31:54.690Z,1.41
2018-02-23T00:34:20.633Z,0.98
2018-02-23T00:36:46.626Z,1.09
2018-02-23T00:39:12.625Z,0.75
2018-02-23T00:41:38.568Z,0.93
2018-02-23T00:44:04.548Z,1.00
2018-02-23T00:46:30.470Z,0.75
2018-02-23T00:48:56.404Z,0.78
2018-02-23T00:51:22.333Z,1.08
2018-02-23T00:53:48.263Z,1.02
2018-02-23T00:56:14.297Z,0.97
2018-02-23T00:58:40.252Z,0.97
2018-02-23T01:01:06.280Z,0.81
2018-02-23T01:03:32.252Z,0.83
2018-02-23T01:05:58.182Z,0.65
2018-02-23T01:08:24.111Z,0.71
2018-02-23T01:10:50.060Z,0.63
2018-02-23T01:13:16.033Z,0.93
2018-02-23T01:15:41.954Z,0.78
2018-02-23T01:18:07.878Z,0.77
2018-02-23T01:20:33.824Z,0.67
2018-02-23T01:22:59.750Z,0.54
2018-02-23T01:25:25.686Z,0.54
2018-02-23T01:27:51.610Z,0.64
2018-02-23T01:30:17.554Z,0.34
2018-02-23T01:32:43.539Z,0.41
2018-02-23T01:35:09.481Z,0.56
2018-02-23T01:37:35.425Z,0.66
2018-02-23T01:40:01.373Z,0.58
2018-02-23T01:42:27.326Z,0.42
2018-02-23T01:44:53.269Z,0.55
2018-02-23T01:47:19.196Z,0.45
2018-02-23T01:49:45.146Z,0.25
2018-02-23T01:52:11.102Z,-0.05
2018-02-23T01:54:37.044Z,0.31
2018-02-23T01:57:02.960Z,0.27
2018-02-23T01:59:28.911Z,-0.07
2018-02-23T02:01:54.850Z,0.09
2018-02-23T02:04:20.811Z,0.34
2018-02-23T02:06:46.754Z,0.40
2018-02-23T02:09:12.726Z,0.36
2018-02-23T02:11:38.667Z,0.32
2018-02-23T02:14:04.616Z,-0.27
2018-02-23T02:16:30.557Z,0.19
2018-02-23T02:18:56.495Z,0.29
2018-02-23T02:21:22.440Z,0.28
2018-02-23T02:23:48.769Z,0.03
2018-02-23T02:26:14.720Z,-0.15
2018-02-23T02:28:40.659Z,0.21
2018-02-23T02:31:06.612Z,0.29
2018-02-23T02:33:32.535Z,0.26
2018-02-23T02:35:58.476Z,-0.17
2018-02-23T02:38:24.414Z,-0.32
2018-02-23T02:40:50.339Z,-0.13
2018-02-23T02:43:16.278Z,-0.18
2018-02-23T02:45:42.216Z,-0.17
2018-02-23T02:48:08.144Z,-0.06
2018-02-23T02:50:34.077Z,0.07
2018-02-23T02:53:00.016Z,-0.45
2018-02-23T02:55:25.951Z,-0.37
2018-02-23T02:57:51.901Z,-0.04
2018-02-23T03:00:17.826Z,-0.10
2018-02-23T03:02:43.762Z,0.02
2018-02-23T03:05:09.789Z,-0.13
2018-02-23T03:07:35.719Z,0.00
2018-02-23T03:10:01.647Z,-0.05
2018-02-23T03:12:27.598Z,-0.46
2018-02-23T03:14:53.552Z,-0.19
2018-02-23T03:17:19.487Z,-0.38
2018-02-23T03:19:45.431Z,-0.24
2018-02-23T03:22:11.371Z,-0.70
2018-02-23T03:24:37.331Z,-0.25
2018-02-23T03:27:03.317Z,-0.66
2018-02-23T03:29:29.252Z,-0.40
2018-02-23T03:31:55.180Z,-0.35
2018-02-23T03:34:21.154Z,-0.14
2018-02-23T03:36:47.141Z,-0.12
2018-02-23T03:39:13.138Z,-0.02
2018-02-23T03:41:39.082Z,-0.07
2018-02-23T03:44:05.007Z,-0.52
2018-02-23T03:46:30.954Z,-0.79
2018-02-23T03:48:56.897Z,-0.55
2018-02-23T03:51:22.832Z,-0.41
2018-02-23T03:53:48.776Z,-0.49
2018-02-23T03:56:14.723Z,-0.32
2018-02-23T03:58:40.659Z,-0.19
2018-02-23T04:01:06.623Z,-0.30
2018-02-23T04:03:32.601Z,-0.47
2018-02-23T04:05:58.560Z,-0.47
2018-02-23T04:08:24.503Z,-0.72
2018-02-23T04:10:50.445Z,-0.84
2018-02-23T04:13:16.397Z,-0.54
2018-02-23T04:15:42.352Z,-0.80
2018-02-23T04:18:08.290Z,-0.65
2018-02-23T04:20:34.216Z,-0.41
2018-02-23T04:23:00.156Z,-0.63
2018-02-23T04:25:26.090Z,-0.38
2018-02-23T04:27:52.029Z,-0.38
2018-02-23T04:30:17.965Z,-0.57
2018-02-23T04:32:43.919Z,-0.42
2018-02-23T04:35:09.871Z,0.52
2018-02-23T04:37:35.807Z,-0.18
2018-02-23T04:40:01.753Z,-0.55
2018-02-23T04:42:27.787Z,-0.76
2018-02-23T04:44:53.727Z,-0.82
2018-02-23T04:47:19.717Z,-1.06
2018-02-23T04:49:45.739Z,-0.74
2018-02-23T04:52:11.693Z,-0.76
2018-02-23T04:54:37.663Z,-1.00
2018-02-23T04:57:03.611Z,-0.91
2018-02-23T04:59:29.552Z,-0.92
2018-02-23T05:01:55.560Z,-0.64
2018-02-23T05:04:21.511Z,-0.66
2018-02-23T05:06:47.453Z,-0.86
2018-02-23T05:09:13.401Z,-0.54
2018-02-23T05:11:39.336Z,-0.47
2018-02-23T05:14:05.296Z,-0.70
2018-02-23T05:16:31.253Z,-0.70
2018-02-23T05:18:57.191Z,-0.63
2018-02-23T05:21:23.135Z,-0.61
2018-02-23T05:23:49.100Z,-0.52
2018-02-23T05:26:15.049Z,-0.47
2018-02-23T05:28:40.987Z,-0.98
2018-02-23T05:31:06.928Z,-0.31
2018-02-23T05:33:32.857Z,-0.30
2018-02-23T05:35:58.797Z,-0.37
2018-02-23T05:38:24.729Z,-0.29
2018-02-23T05:40:50.661Z,-0.36
2018-02-23T05:43:16.615Z,-0.44
2018-02-23T05:45:42.589Z,-0.42
2018-02-23T05:48:08.568Z,-0.72
2018-02-23T05:50:34.469Z,-0.75
2018-02-23T05:53:00.441Z,-0.90
2018-02-23T05:55:26.384Z,-0.65
2018-02-23T05:57:52.328Z,-0.88
2018-02-23T06:00:18.285Z,-0.54
2018-02-23T06:02:44.226Z,-0.72
2018-02-23T06:05:10.171Z,-0.58
2018-02-23T06:07:36.143Z,-0.53
2018-02-23T06:10:02.092Z,-0.50
2018-02-23T06:12:28.059Z,-0.58
2018-02-23T06:14:54.039Z,-0.61
2018-02-23T06:17:19.975Z,-0.62
2018-02-23T06:19:45.955Z,-0.52
2018-02-23T06:22:11.958Z,-0.37
2018-02-23T06:24:37.902Z,-0.55
2018-02-23T06:27:03.833Z,-0.58
2018-02-23T06:29:29.810Z,-0.46
2018-02-23T06:31:55.778Z,-0.64
2018-02-23T06:34:21.731Z,-0.54
2018-02-23T06:36:47.665Z,-0.46
2018-02-23T06:39:13.627Z,-0.60
2018-02-23T06:41:39.574Z,-0.83
2018-02-23T06:44:05.515Z,-0.75
2018-02-23T06:46:31.464Z,-0.53
2018-02-23T06:48:57.410Z,-0.63
2018-02-23T06:51:23.381Z,-0.27
2018-02-23T06:53:49.377Z,-0.14
2018-02-23T06:56:15.302Z,-0.26
2018-02-23T06:58:41.256Z,-0.14
2018-02-23T07:01:07.200Z,0.00
2018-02-23T07:03:33.255Z,-0.02
2018-02-23T07:05:59.221Z,-0.06
2018-02-23T07:08:25.153Z,0.22
2018-02-23T07:10:51.153Z,0.50
2018-02-23T07:13:17.098Z,0.41
2018-02-23T07:15:43.044Z,0.59
2018-02-23T07:18:08.991Z,0.75
2018-02-23T07:20:34.963Z,0.53
2018-02-23T07:23:00.901Z,0.75
2018-02-23T07:25:26.838Z,0.88
2018-02-23T07:27:52.764Z,0.92
2018-02-23T07:30:18.710Z,1.36
2018-02-23T07:32:44.628Z,0.83
2018-02-23T07:35:10.617Z,1.20
2018-02-23T07:37:36.599Z,0.97
2018-02-23T07:40:02.559Z,0.71
2018-02-23T07:42:28.573Z,0.81
2018-02-23T07:44:54.483Z,1.46
2018-02-23T07:47:20.422Z,1.28
2018-02-23T07:49:46.417Z,1.67
2018-02-23T07:52:12.362Z,1.49
2018-02-23T07:54:38.298Z,1.37
2018-02-23T07:57:04.275Z,1.35
2018-02-23T07:59:30.228Z,1.31
2018-02-23T08:01:56.180Z,1.82
2018-02-23T08:04:22.126Z,1.47
2018-02-23T08:06:48.072Z,0.83
2018-02-23T08:09:14.020Z,1.55
2018-02-23T08:11:39.960Z,1.51
2018-02-23T08:14:05.992Z,1.61
2018-02-23T08:16:31.966Z,1.64
2018-02-23T08:18:57.923Z,1.62
2018-02-23T08:21:23.894Z,1.55
2018-02-23T08:23:49.855Z,1.83
2018-02-23T08:26:15.849Z,1.38
2018-02-23T08:28:41.903Z,1.32
2018-02-23T08:31:07.906Z,1.61
2018-02-23T08:33:33.843Z,1.26
2018-02-23T08:35:59.798Z,1.13
2018-02-23T08:38:25.760Z,1.64
2018-02-23T08:40:51.716Z,1.28
2018-02-23T08:43:17.722Z,1.79
2018-02-23T08:45:43.710Z,2.15
2018-02-23T08:48:09.672Z,1.69
2018-02-23T08:50:35.628Z,1.72
2018-02-23T08:53:01.612Z,1.75
2018-02-23T08:55:27.554Z,1.51
2018-02-23T08:57:53.536Z,1.56
2018-02-23T09:00:19.476Z,1.90
2018-02-23T09:02:45.433Z,2.05
2018-02-23T09:05:11.416Z,2.05
2018-02-23T09:07:37.364Z,1.76
2018-02-23T09:10:03.346Z,2.05
2018-02-23T09:12:29.303Z,1.99
2018-02-23T09:14:55.248Z,2.09
2018-02-23T09:17:21.194Z,2.16
2018-02-23T09:19:47.148Z,1.88
2018-02-23T09:22:13.116Z,1.58
2018-02-23T09:24:39.241Z,1.55
2018-02-23T09:27:05.168Z,1.61
2018-02-23T09:29:31.104Z,1.57
2018-02-23T09:31:57.066Z,2.10
2018-02-23T09:34:23.011Z,1.74
2018-02-23T09:36:48.973Z,1.73
2018-02-23T09:39:14.917Z,2.02
2018-02-23T09:41:40.850Z,1.71
2018-02-23T09:44:06.814Z,1.39
2018-02-23T09:46:32.748Z,1.94
2018-02-23T09:48:58.678Z,1.96
2018-02-23T09:51:24.638Z,1.95
2018-02-23T09:53:50.574Z,1.80
2018-02-23T09:56:16.538Z,1.59
2018-02-23T09:58:42.491Z,1.11
2018-02-23T10:01:08.469Z,1.30
2018-02-23T10:03:34.438Z,1.21
2018-02-23T10:06:00.414Z,1.63
2018-02-23T10:08:26.349Z,1.45
2018-02-23T10:10:52.360Z,1.47
2018-02-23T10:13:18.254Z,1.32
2018-02-23T10:15:44.206Z,2.03
2018-02-23T10:18:10.156Z,1.14
2018-02-23T10:20:36.198Z,1.38
2018-02-23T10:23:02.173Z,1.63
2018-02-23T10:25:28.110Z,1.60
2018-02-23T10:27:54.067Z,1.63
2018-02-23T10:30:20.242Z,1.54
2018-02-23T10:32:46.263Z,2.16
2018-02-23T10:35:12.194Z,1.69
2018-02-23T10:37:38.120Z,1.32
2018-02-23T10:40:04.129Z,1.54
2018-02-23T10:42:30.083Z,1.45
2018-02-23T10:44:56.035Z,1.52
2018-02-23T10:47:21.974Z,1.48
2018-02-23T10:49:47.908Z,1.59
2018-02-23T10:52:13.846Z,1.58
2018-02-23T10:54:39.770Z,1.27
2018-02-23T10:57:05.711Z,1.14
2018-02-23T10:59:31.642Z,1.25
2018-02-23T11:01:57.600Z,1.35
2018-02-23T11:04:23.552Z,1.31
2018-02-23T11:06:49.518Z,1.62
2018-02-23T11:09:15.454Z,1.51
2018-02-23T11:11:41.401Z,1.65
2018-02-23T11:14:07.330Z,1.56
2018-02-23T11:16:33.293Z,1.99
2018-02-23T11:18:59.231Z,1.92
2018-02-23T11:21:25.170Z,1.85
2018-02-23T11:23:51.109Z,1.47
2018-02-23T11:26:17.061Z,1.26
2018-02-23T11:28:43.015Z,1.80
2018-02-23T11:31:08.963Z,1.51
2018-02-23T11:33:34.890Z,1.48
2018-02-23T11:36:00.848Z,2.00
2018-02-23T11:38:26.799Z,1.77
2018-02-23T11:40:52.788Z,1.71
2018-02-23T11:43:18.733Z,1.82
2018-02-23T11:45:44.696Z,1.98
2018-02-23T11:48:10.747Z,1.89
2018-02-23T11:50:36.707Z,1.86
2018-02-23T11:53:02.671Z,1.74
2018-02-23T11:55:28.604Z,1.42
2018-02-23T11:57:54.564Z,1.56
2018-02-23T12:00:20.525Z,1.33
2018-02-23T12:02:46.471Z,1.53
2018-02-23T12:05:12.411Z,1.73
2018-02-23T12:07:38.355Z,1.83
2018-02-23T12:10:04.295Z,1.88
2018-02-23T12:12:30.245Z,1.75
2018-02-23T12:14:56.235Z,1.87
2018-02-23T12:17:22.179Z,1.69
2018-02-23T12:19:48.127Z,1.68
2018-02-23T12:22:14.059Z,1.86
2018-02-23T12:24:40.011Z,2.07
2018-02-23T12:27:05.951Z,1.93
2018-02-23T12:29:31.925Z,2.15
2018-02-23T12:31:57.867Z,2.21
2018-02-23T12:34:23.854Z,2.05
2018-02-23T12:36:49.795Z,2.55
2018-02-23T12:39:15.749Z,2.30
2018-02-23T12:41:41.703Z,2.06
2018-02-23T12:44:07.640Z,2.22
2018-02-23T12:46:33.599Z,2.34
2018-02-23T12:48:59.557Z,2.29
2018-02-23T12:51:25.493Z,2.20
2018-02-23T12:53:51.435Z,1.99
2018-02-23T12:56:17.379Z,2.14
2018-02-23T12:58:43.325Z,1.87
2018-02-23T13:01:09.291Z,2.29
2018-02-23T13:03:35.227Z,2.02
2018-02-23T13:06:01.163Z,2.10
2018-02-23T13:08:27.105Z,2.20
2018-02-23T13:10:53.050Z,2.08
2018-02-23T13:13:19.013Z,2.05
2018-02-23T13:15:44.959Z,2.21
2018-02-23T13:18:10.916Z,2.25
2018-02-23T13:20:36.871Z,2.19
2018-02-23T13:23:02.814Z,2.22
2018-02-23T13:25:28.759Z,2.33
2018-02-23T13:27:54.704Z,2.36
2018-02-23T13:30:20.655Z,2.42
2018-02-23T13:32:46.579Z,2.43
2018-02-23T13:35:12.507Z,2.24
2018-02-23T13:37:38.462Z,1.88
2018-02-23T13:40:04.427Z,2.04
2018-02-23T13:42:30.383Z,2.50
2018-02-23T13:44:56.385Z,2.31
2018-02-23T13:47:22.327Z,2.25
2018-02-23T13:49:48.307Z,2.58
2018-02-23T13:52:14.261Z,2.50
2018-02-23T13:54:40.205Z,2.36
2018-02-23T13:57:06.178Z,2.54
2018-02-23T13:59:32.117Z,2.15
2018-02-23T14:01:58.051Z,2.10
2018-02-23T14:04:23.991Z,2.27
2018-02-23T14:06:49.934Z,2.47
2018-02-23T14:09:15.885Z,2.43
2018-02-23T14:11:41.857Z,2.55
2018-02-23T14:14:07.820Z,2.60
2018-02-23T14:16:33.765Z,2.34
2018-02-23T14:18:59.697Z,2.43
2018-02-23T14:21:25.626Z,2.56
2018-02-23T14:23:51.587Z,2.50
2018-02-23T14:26:17.552Z,2.18
2018-02-23T14:28:43.481Z,2.20
2018-02-23T14:31:09.499Z,2.15
2018-02-23T14:33:35.436Z,2.21
2018-02-23T14:36:01.399Z,2.27
2018-02-23T14:38:27.332Z,2.42
2018-02-23T14:40:53.268Z,2.22
2018-02-23T14:43:19.209Z,2.11
2018-02-23T14:45:45.190Z,1.94
2018-02-23T14:48:11.132Z,1.86
2018-02-23T14:50:37.082Z,2.06
2018-02-23T14:53:03.014Z,2.34
2018-02-23T14:55:28.975Z,2.33
2018-02-23T14:57:54.906Z,2.43
2018-02-23T15:00:20.866Z,2.36
2018-02-23T15:02:46.824Z,2.00
2018-02-23T15:05:12.762Z,2.08
2018-02-23T15:07:38.716Z,2.13
2018-02-23T15:10:04.692Z,2.17
2018-02-23T15:12:30.638Z,1.98
2018-02-23T15:14:56.594Z,2.18
2018-02-23T15:17:22.530Z,2.15
2018-02-23T15:19:48.487Z,2.05
2018-02-23T15:22:14.418Z,2.13
2018-02-23T15:24:40.372Z,2.08
2018-02-23T15:27:06.306Z,1.81
2018-02-23T15:29:32.274Z,1.68
2018-02-23T15:31:58.209Z,1.84
2018-02-23T15:34:24.156Z,1.78
2018-02-23T15:36:50.093Z,1.78
2018-02-23T15:39:16.058Z,1.77
2018-02-23T15:41:42.077Z,1.48
2018-02-23T15:44:08.028Z,1.58
2018-02-23T15:46:33.980Z,1.48
2018-02-23T15:48:59.954Z,1.86
2018-02-23T15:51:25.891Z,1.61
2018-02-23T15:53:51.851Z,1.52
2018-02-23T15:56:17.810Z,1.64
2018-02-23T15:58:43.751Z,2.00
2018-02-23T16:01:09.691Z,1.45
2018-02-23T16:03:35.646Z,1.28
2018-02-23T16:06:01.595Z,1.28
2018-02-23T16:08:27.534Z,1.26
2018-02-23T16:10:53.464Z,1.28
2018-02-23T16:13:19.398Z,1.36
2018-02-23T16:15:45.334Z,0.99
2018-02-23T16:18:11.308Z,0.99
2018-02-23T16:20:37.344Z,0.87
2018-02-23T16:23:03.275Z,1.03
2018-02-23T16:25:29.232Z,0.98
2018-02-23T16:27:55.174Z,1.05
2018-02-23T16:30:21.207Z,0.91
2018-02-23T16:32:47.146Z,0.69
2018-02-23T16:35:13.081Z,1.02
2018-02-23T16:37:39.034Z,1.11
2018-02-23T16:40:04.989Z,0.86
2018-02-23T16:42:30.946Z,0.88
2018-02-23T16:44:56.894Z,0.77
2018-02-23T16:47:22.870Z,0.75
2018-02-23T16:49:48.907Z,0.78
2018-02-23T16:52:14.834Z,0.70
2018-02-23T16:54:40.774Z,0.70
2018-02-23T16:57:06.719Z,0.70
2018-02-23T16:59:32.714Z,0.56
2018-02-23T17:01:58.702Z,0.65
2018-02-23T17:04:24.685Z,0.69
2018-02-23T17:06:50.606Z,0.78
2018-02-23T17:09:16.551Z,0.79
2018-02-23T17:11:42.493Z,0.67
2018-02-23T17:14:08.437Z,0.83
2018-02-23T17:16:34.387Z,0.76
2018-02-23T17:19:00.298Z,0.72
2018-02-23T17:21:26.238Z,0.64
2018-02-23T17:23:52.167Z,0.85
2018-02-23T17:26:18.127Z,0.51
2018-02-23T17:28:44.099Z,0.32
2018-02-23T17:31:10.025Z,0.41
2018-02-23T17:33:37.123Z,0.50
2018-02-23T17:36:03.143Z,0.62
2018-02-23T17:38:29.097Z,0.37
2018-02-23T17:40:55.049Z,0.60
2018-02-23T17:43:21.009Z,0.37
2018-02-23T17:45:46.955Z,0.24
2018-02-23T17:48:12.923Z,0.24
2018-02-23T17:50:38.863Z,0.24
2018-02-23T17:53:04.811Z,0.38
2018-02-23T17:55:30.802Z,0.47
2018-02-23T17:57:56.712Z,0.43
2018-02-23T18:00:22.655Z,0.50
2018-02-23T18:02:48.934Z,0.36
2018-02-23T18:05:14.903Z,0.18
2018-02-23T18:07:40.851Z,0.40
2018-02-23T18:10:06.861Z,0.42
2018-02-23T18:12:32.885Z,0.44
2018-02-23T18:14:58.837Z,-0.04
2018-02-23T18:17:24.803Z,-0.03
2018-02-23T18:19:50.759Z,-0.05
2018-02-23T18:22:16.742Z,0.29
2018-02-23T18:24:42.754Z,-0.09
2018-02-23T18:27:08.695Z,0.02
2018-02-23T18:29:34.639Z,0.02
2018-02-23T18:32:00.579Z,0.64
2018-02-23T18:34:26.547Z,-0.05
2018-02-23T18:36:52.497Z,-0.08
2018-02-23T18:39:18.536Z,0.15
2018-02-23T18:41:44.493Z,0.24
2018-02-23T18:44:10.441Z,-0.05
2018-02-23T18:46:36.382Z,-0.10
2018-02-23T18:49:02.365Z,0.21
2018-02-23T18:51:28.297Z,0.57
2018-02-23T18:53:54.249Z,0.48
2018-02-23T18:56:20.188Z,0.15
2018-02-23T18:58:46.217Z,0.39
2018-02-23T19:01:12.179Z,0.23
2018-02-23T19:03:38.118Z,0.18
2018-02-23T19:06:04.111Z,0.54
2018-02-23T19:08:30.047Z,0.30
2018-02-23T19:10:56.028Z,0.25
2018-02-23T19:13:21.963Z,0.25
2018-02-23T19:15:47.905Z,0.63
2018-02-23T19:18:13.857Z,0.27
2018-02-23T19:20:39.805Z,-0.05
2018-02-23T19:23:05.735Z,0.20
2018-02-23T19:25:31.695Z,0.14
2018-02-23T19:27:57.659Z,0.31
2018-02-23T19:30:23.869Z,0.03
2018-02-23T19:32:49.805Z,0.45
2018-02-23T19:35:15.777Z,0.09
2018-02-23T19:37:41.736Z,0.09
2018-02-23T19:40:07.692Z,-0.21
2018-02-23T19:42:33.649Z,-0.20
2018-02-23T19:44:59.667Z,0.44
2018-02-23T19:47:25.676Z,0.39
2018-02-23T19:49:51.614Z,-0.23
2018-02-23T19:52:17.567Z,-0.27
2018-02-23T19:54:43.517Z,-0.07
2018-02-23T19:57:09.534Z,-0.31
2018-02-23T19:59:35.464Z,-0.23
2018-02-23T20:02:01.418Z,-0.21
2018-02-23T20:04:27.356Z,-0.10
2018-02-23T20:06:53.320Z,0.00
2018-02-23T20:09:19.272Z,-0.41
2018-02-23T20:11:45.219Z,0.03
2018-02-23T20:14:11.190Z,-0.42
2018-02-23T20:16:37.131Z,-0.12
2018-02-23T20:19:03.454Z,0.24
2018-02-23T20:21:29.693Z,-0.20
2018-02-23T20:23:55.780Z,0.13
2018-02-23T20:26:22.094Z,0.02
2018-02-23T20:28:48.084Z,-0.48
2018-02-23T20:31:14.012Z,0.08
2018-02-23T20:33:39.990Z,0.46
2018-02-23T20:36:05.928Z,-0.03
2018-02-23T20:38:32.002Z,-0.06
2018-02-23T20:40:57.940Z,0.15
2018-02-23T20:43:23.906Z,-0.18
2018-02-23T20:45:49.883Z,-0.48
2018-02-23T20:48:15.837Z,-0.35
2018-02-23T20:50:41.785Z,-0.13
2018-02-23T20:53:07.753Z,-0.50
2018-02-23T20:55:33.726Z,-0.14
2018-02-23T20:57:59.685Z,-0.17
2018-02-23T21:00:25.619Z,-0.58
2018-02-23T21:02:51.581Z,-0.02
2018-02-23T21:05:17.522Z,-0.02
2018-02-23T21:07:43.474Z,0.01
2018-02-23T21:10:09.398Z,-0.55
2018-02-23T21:12:35.354Z,-0.16
2018-02-23T21:15:01.303Z,-0.16
2018-02-23T21:17:27.269Z,-0.54
2018-02-23T21:19:53.206Z,-0.70
2018-02-23T21:22:19.168Z,-0.94
2018-02-23T21:24:45.103Z,-0.42
2018-02-23T21:27:11.043Z,-0.87
2018-02-23T21:29:37.060Z,-0.87
2018-02-23T21:32:03.011Z,-0.27
2018-02-23T21:34:28.955Z,-0.26
2018-02-23T21:36:54.909Z,-0.22
2018-02-23T21:39:20.855Z,-0.02
2018-02-23T21:41:46.843Z,-0.80
2018-02-23T21:44:12.833Z,-1.25
2018-02-23T21:46:38.795Z,-0.66
2018-02-23T21:49:04.827Z,-0.44
2018-02-23T21:51:30.860Z,-0.33
2018-02-23T21:53:56.809Z,-0.30
2018-02-23T21:56:22.750Z,-0.63
2018-02-23T21:58:48.710Z,-0.49
2018-02-23T22:01:14.703Z,-0.80
2018-02-23T22:03:40.673Z,-0.71
2018-02-23T22:06:06.619Z,-0.85
2018-02-23T22:08:32.546Z,-0.49
2018-02-23T22:10:58.490Z,-0.85
2018-02-23T22:13:24.439Z,-1.09
2018-02-23T22:15:50.381Z,-0.98
2018-02-23T22:18:16.330Z,-1.01
2018-02-23T22:20:42.276Z,-0.42
2018-02-23T22:23:08.223Z,-0.12
2018-02-23T22:25:34.175Z,-0.50
2018-02-23T22:28:00.115Z,-0.49
2018-02-23T22:30:26.077Z,-0.82
2018-02-23T22:32:52.027Z,-1.01
2018-02-23T22:35:17.983Z,-1.21
2018-02-23T22:37:43.919Z,-1.42
2018-02-23T22:40:09.879Z,-1.16
2018-02-23T22:42:35.801Z,-0.90
2018-02-23T22:45:01.766Z,-0.59
2018-02-23T22:47:27.714Z,-0.64
2018-02-23T22:49:53.655Z,-1.09
2018-02-23T22:52:19.625Z,-1.08
2018-02-23T22:54:45.637Z,-1.46
2018-02-23T22:57:11.601Z,-1.35
2018-02-23T22:59:37.551Z,-0.89
2018-02-23T23:02:03.471Z,-1.02
2018-02-23T23:04:29.410Z,-1.20
2018-02-23T23:06:55.359Z,-1.03
2018-02-23T23:09:21.309Z,-1.19
2018-02-23T23:11:47.301Z,-1.14
2018-02-23T23:14:13.241Z,-1.34
2018-02-23T23:16:39.204Z,-0.72
2018-02-23T23:19:05.144Z,-0.65
2018-02-23T23:21:31.112Z,-0.67
2018-02-23T23:23:57.082Z,-1.11
2018-02-23T23:26:23.033Z,-1.01
2018-02-23T23:28:49.279Z,-1.12
2018-02-23T23:31:15.246Z,-0.86
2018-02-23T23:33:41.205Z,-1.19
2018-02-23T23:36:07.187Z,-1.36
2018-02-23T23:38:33.114Z,-1.49
2018-02-23T23:40:59.083Z,-1.35
2018-02-23T23:43:25.017Z,-1.22
2018-02-23T23:45:50.975Z,-1.38
2018-02-23T23:48:16.910Z,-1.47
2018-02-23T23:50:42.856Z,-1.58
2018-02-23T23:53:08.799Z,-1.81
2018-02-23T23:55:34.748Z,-1.93
2018-02-23T23:58:00.683Z,-1.75
